Latest Weather Observations for Argyle

IDW60801

Issued at 8:03 pm WST Sunday 25 September 2016 (issued every 30 minutes, with the page automatically refreshed every 10 minutes)

About weather observations | Map of weather stations | Latest weather observations for WA | Other Formats
Station Details ID: 002064 Name: ARGYLE AERODROME Lat: -16.64 Lon: 128.45 Height: 164.0 m
Data from the previous 72 hours. | See also: Recent months at Argyle
Date/Time
WST
Temp
°C
App
Temp
°C
Dew
Point
°C
Rel
Hum
%
Delta-T
°C
Wind Press
QNH
hPa
Press
MSL
hPa
Rain since
9am
mm
Dir  Spd
km/h
Gust
km/h
Spd
kts
Gust
kts
25/07:30pm 32.3 32.0 12.6 30 11.8 W 6 9 3 5 1008.9 - 0.0
25/07:00pm 33.2 33.0 13.5 30 12.0 E 7 9 4 5 1008.5 - 0.0
25/06:30pm 34.0 32.7 12.4 27 13.0 NNE 11 17 6 9 1008.2 - 0.0
25/06:00pm 34.6 33.4 11.6 24 13.7 NNE 9 13 5 7 1007.7 1006.6 0.0
25/05:30pm 35.4 34.2 11.5 23 14.3 ENE 9 13 5 7 1007.2 - 0.0
25/05:00pm 36.6 34.6 10.3 20 15.5 NE 11 15 6 8 1006.8 - 0.0
25/04:30pm 37.0 35.3 10.0 19 15.8 NNE 9 15 5 8 1006.7 - 0.0
25/04:00pm 37.4 35.3 9.9 19 16.1 ENE 11 20 6 11 1006.5 - 0.0
25/03:30pm 38.1 35.5 9.5 17 16.7 NE 13 17 7 9 1006.4 - 0.0
25/03:00pm 37.7 36.2 8.4 17 16.9 N 6 13 3 7 1006.6 1005.5 0.0
25/02:30pm 38.1 36.6 9.2 17 16.8 WSW 7 11 4 6 1006.6 - 0.0
25/02:00pm 37.1 36.1 10.4 20 15.8 NW 6 11 3 6 1006.9 - 0.0
25/01:30pm 36.9 34.6 10.3 20 15.7 SW 13 22 7 12 1007.0 - 0.0
25/12:30pm 36.7 35.0 10.0 19 15.7 SSW 9 15 5 8 1007.8 - 0.0
25/12:00pm 37.1 34.3 8.7 17 16.4 ESE 13 20 7 11 1008.3 1007.2 0.0
25/11:30am 36.6 33.8 8.6 18 16.1 E 13 22 7 12 1008.8 - 0.0
25/11:00am 36.3 34.8 8.6 18 15.9 NNW 6 13 3 7 1009.3 - 0.0
25/10:30am 36.5 34.7 9.6 19 15.7 W 9 19 5 10 1009.9 - 0.0
25/10:00am 35.0 33.4 11.5 24 14.0 SSW 11 20 6 11 1010.5 - 0.0
25/09:30am 34.9 34.0 10.5 22 14.3 SE 6 19 3 10 1010.8 - 0.0
25/09:00am 34.2 32.5 9.9 22 14.1 SSE 9 17 5 9 1010.9 1009.8 0.0
25/08:30am 32.9 32.2 13.1 30 12.0 SE 9 13 5 7 1010.9 - -
25/08:00am 32.8 31.4 12.2 28 12.3 SSE 11 19 6 10 1011.0 - 0.0
25/07:30am 31.6 31.7 14.5 35 10.5 SE 7 11 4 6 1010.7 - 0.0
25/07:00am 30.9 31.7 16.3 41 9.2 ESE 7 11 4 6 1010.5 - 0.0
25/06:30am 29.9 31.0 17.0 45 8.2 ESE 7 9 4 5 1010.3 - 0.0
25/06:00am 27.9 29.2 17.1 51 6.8 E 6 - 3 - - 1008.7 -
25/05:30am 26.3 27.4 17.1 57 5.8 SE 7 11 4 6 1009.4 - 0.0
25/05:00am 26.8 28.1 17.1 55 6.1 SSE 6 7 3 4 1008.9 - 0.0
25/04:30am 28.0 28.5 16.5 49 7.2 N 9 9 5 5 1008.7 - 0.0
25/04:00am 27.8 28.9 17.0 51 6.8 NNE 7 7 4 4 1008.5 - 0.0
25/03:30am 28.2 30.6 16.9 50 7.1 CALM 0 0 0 0 1008.5 - 0.0
25/03:00am 28.6 29.8 16.9 49 7.4 N 6 9 3 5 1008.3 1007.2 0.0
25/02:30am 28.7 29.6 16.2 46 7.8 N 6 7 3 4 1008.3 - 0.0
25/02:00am 29.1 29.7 15.7 44 8.3 NNW 7 11 4 6 1008.3 - 0.0
25/01:30am 29.6 28.9 15.4 42 8.8 NNW 13 13 7 7 1008.4 - 0.0
25/01:00am 29.7 29.2 14.9 40 9.1 NNW 11 13 6 7 1008.6 - 0.0
25/12:30am 30.0 29.1 14.9 39 9.3 N 13 15 7 8 1008.7 - 0.0
25/12:00am 30.8 28.6 14.3 36 10.1 N 19 26 10 14 1008.8 1007.7 0.0
 
Date/Time
WST
Temp
°C
App
Temp
°C
Dew
Point
°C
Rel
Hum
%
Delta-T
°C
Wind Press
QNH
hPa
Press
MSL
hPa
Rain since
9am
mm
Dir  Spd
km/h
Gust
km/h
Spd
kts
Gust
kts
24/11:30pm 31.3 28.8 14.1 35 10.5 N 20 26 11 14 1008.9 - 0.0
24/11:00pm 31.9 29.4 14.1 34 10.9 N 20 26 11 14 1009.0 - 0.0
24/10:30pm 31.9 30.9 14.5 34 10.7 NNW 13 17 7 9 1009.1 - 0.0
24/10:00pm 31.4 31.1 14.3 35 10.5 WNW 9 13 5 7 1009.0 - 0.0
24/09:30pm 31.2 30.5 14.2 35 10.4 N 11 15 6 8 1008.9 - 0.0
24/09:00pm 32.3 31.6 13.3 31 11.5 NNW 9 11 5 6 1008.8 1007.7 0.0
24/08:30pm 31.5 30.7 12.8 32 11.2 W 9 9 5 5 1008.8 - 0.0
24/08:00pm 32.4 32.2 13.0 30 11.7 NNW 6 7 3 4 1008.5 - 0.0
24/07:30pm 32.6 33.5 14.0 32 11.4 ENE 2 7 1 4 1008.3 - 0.0
24/07:00pm 33.1 33.9 13.6 30 11.9 ESE 2 7 1 4 1008.0 - 0.0
24/06:30pm 33.8 32.4 12.1 26 13.0 NNE 11 13 6 7 1007.5 - 0.0
24/06:00pm 34.1 32.4 11.3 25 13.5 NNE 11 13 6 7 1007.2 1006.1 0.0
24/05:30pm 34.6 33.3 11.1 24 13.9 NE 9 13 5 7 1006.9 - 0.0
24/05:00pm 35.3 33.1 10.8 22 14.5 NE 13 19 7 10 1006.6 - 0.0
24/04:30pm 36.3 34.0 10.6 21 15.2 NNE 13 19 7 10 1006.3 - 0.0
24/04:00pm 36.3 35.0 11.2 22 15.0 NE 9 15 5 8 1006.0 - 0.0
24/03:30pm 38.1 36.5 10.3 18 16.5 NE 9 17 5 9 1005.7 - 0.0
24/03:00pm 37.7 36.1 8.7 17 16.8 NNE 7 11 4 6 1005.6 1004.5 0.0
24/02:30pm 38.0 34.5 7.4 15 17.4 NNW 15 28 8 15 1005.7 - 0.0
24/01:30pm 36.7 34.5 7.9 17 16.4 W 9 11 5 6 1006.4 - 0.0
24/01:00pm 37.1 34.3 8.4 17 16.5 W 13 19 7 10 1006.8 - 0.0
24/12:30pm 36.5 33.9 9.3 19 15.8 W 13 24 7 13 1007.4 - 0.0
24/12:00pm 36.1 33.6 9.7 20 15.4 S 13 22 7 12 1007.9 1006.8 0.0
24/11:30am 36.8 35.5 9.9 19 15.8 E 7 15 4 8 1008.4 - 0.0
24/11:00am 36.5 35.0 10.7 21 15.3 SSE 9 17 5 9 1009.1 - 0.0
24/10:30am 34.7 32.5 10.8 23 14.1 SSE 13 24 7 13 1009.8 - 0.0
24/10:00am 34.2 33.8 14.1 29 12.4 S 9 17 5 9 1010.4 - 0.0
24/09:30am 33.4 32.8 15.6 34 11.2 S 13 20 7 11 1010.9 - 0.0
24/09:00am 32.4 31.4 16.5 38 10.1 SSW 17 22 9 12 1011.3 - 0.0
24/08:30am 31.9 30.2 16.2 38 9.9 SW 20 32 11 17 1011.3 - 0.0
24/08:00am 31.2 33.7 20.2 52 7.3 S 7 13 4 7 1011.5 - 0.0
24/07:30am 29.8 32.9 21.0 59 5.9 NNE 6 9 3 5 1011.5 - 0.0
24/07:00am 28.2 31.2 21.2 65 4.7 NNW 7 11 4 6 1011.4 - 0.0
24/06:30am 27.7 30.7 21.9 70 3.9 NNW 9 13 5 7 1011.1 - 0.0
24/06:00am 26.6 30.3 22.2 77 3.0 NNW 6 9 3 5 1010.8 - 0.0
24/05:30am 26.0 29.6 22.1 79 2.6 WSW 6 7 3 4 1010.4 - 0.0
24/05:00am 25.9 29.2 21.9 78 2.7 NW 7 11 4 6 1010.3 - 0.0
24/04:30am 26.2 29.7 22.2 78 2.7 N 7 9 4 5 1009.8 - 0.0
24/04:00am 26.5 30.0 22.2 77 2.9 N 7 7 4 4 1009.6 - 0.0
24/03:30am 26.2 29.7 22.2 78 2.7 N 7 9 4 5 1009.4 - 0.0
24/03:00am 26.6 30.3 22.2 77 3.0 NNW 6 7 3 4 1009.4 1008.3 0.0
24/02:30am 26.7 30.3 22.0 75 3.2 NNW 6 9 3 5 1009.4 - 0.0
24/02:00am 27.0 30.3 21.8 73 3.5 N 7 11 4 6 1009.4 - 0.0
24/01:30am 27.2 30.1 21.7 72 3.7 N 9 11 5 6 1009.3 - 0.0
24/01:00am 27.4 29.8 21.6 70 3.9 N 11 17 6 9 1009.3 - 0.0
24/12:30am 27.7 29.6 21.4 68 4.2 N 13 19 7 10 1009.3 - 0.0
24/12:00am 28.1 29.0 20.9 65 4.8 NNW 17 20 9 11 1009.5 1008.4 0.0
 
Date/Time
WST
Temp
°C
App
Temp
°C
Dew
Point
°C
Rel
Hum
%
Delta-T
°C
Wind Press
QNH
hPa
Press
MSL
hPa
Rain since
9am
mm
Dir  Spd
km/h
Gust
km/h
Spd
kts
Gust
kts
23/11:30pm 28.6 29.3 19.6 58 5.9 N 15 20 8 11 1009.6 - 0.0
23/11:00pm 29.1 28.5 18.8 53 6.7 N 20 30 11 16 1009.6 - 0.0
23/10:30pm 29.8 28.6 18.5 50 7.3 N 22 33 12 18 1009.5 - 0.0
23/10:00pm 30.2 29.1 19.4 52 7.1 NNW 24 30 13 16 1009.6 - 0.0
23/09:30pm 30.8 30.6 19.8 52 7.3 N 20 24 11 13 1009.5 - 0.0
23/09:00pm 31.0 31.7 19.7 51 7.5 N 15 24 8 13 1009.4 1008.3 0.0
23/08:30pm 30.7 32.1 20.4 54 6.9 NNE 13 17 7 9 1009.3 - 0.0
23/08:00pm 31.2 32.1 20.1 51 7.4 ENE 15 20 8 11 1009.0 - 0.0
23/07:30pm 31.5 32.5 19.4 48 8.0 NNE 13 19 7 10 1008.5 - 0.0
23/07:00pm 31.9 32.1 18.6 45 8.7 NE 15 22 8 12 1008.1 - 0.0
23/06:30pm 32.6 32.1 15.8 36 10.6 NE 13 30 7 16 1007.8 - 0.0
23/06:00pm 33.2 32.5 15.3 34 11.2 NNE 13 19 7 10 1007.4 1006.3 0.0
23/05:30pm 33.6 33.0 15.7 34 11.3 NNE 13 19 7 10 1007.1 - 0.0
23/05:00pm 35.4 34.8 12.2 24 14.0 NE 7 11 4 6 1006.7 - 0.0
23/04:30pm 35.6 35.4 13.0 25 13.8 SSW 6 9 3 5 1006.7 - 0.0
23/04:00pm 35.9 35.5 13.0 25 14.0 E 7 9 4 5 1006.4 - 0.0
23/03:30pm 35.5 34.6 12.6 25 13.9 ENE 9 13 5 7 1006.5 - 0.0
23/03:00pm 36.1 34.8 12.4 24 14.4 NNW 11 17 6 9 1006.6 - 0.0
23/02:30pm 36.0 35.1 13.7 26 13.8 S 11 20 6 11 1006.9 - 0.0
23/02:00pm 36.5 34.8 13.5 25 14.2 S 15 20 8 11 1007.1 - 0.0
23/01:30pm 36.2 34.6 12.8 24 14.3 WSW 13 20 7 11 1007.4 - 0.0
23/01:00pm 36.0 35.5 13.7 26 13.8 WNW 9 15 5 8 1007.9 - 0.0
23/12:30pm 34.7 33.2 14.2 29 12.7 SSW 15 24 8 13 1008.5 - 0.0
23/12:00pm 34.6 33.3 13.6 28 12.9 S 13 24 7 13 1009.1 1008.0 0.0
23/11:30am 33.8 32.7 15.3 33 11.6 S 15 26 8 14 1009.7 - 0.0
23/11:00am 33.6 33.3 15.5 33 11.4 SSE 11 17 6 9 1010.4 - 0.0
23/10:30am 32.9 31.6 15.7 35 10.8 SSW 17 22 9 12 1011.1 - 0.0
23/10:00am 32.6 32.4 15.7 36 10.6 WSW 11 19 6 10 1011.5 - 0.0
23/09:30am 32.3 32.5 15.7 36 10.4 E 9 17 5 9 1011.9 - 0.0
23/09:00am 31.9 32.8 17.6 42 9.2 NNW 9 19 5 10 1012.2 1011.2 0.0
23/08:30am 30.2 31.8 19.2 51 7.2 N 9 17 5 9 1012.6 - 0.0
23/08:00am 29.6 31.9 20.6 58 6.0 N 9 13 5 7 1012.8 - 0.0
23/07:30am 28.6 31.5 21.1 64 5.0 N 7 11 4 6 1012.8 - 0.0
23/07:00am 28.2 32.6 23.4 75 3.3 NNE 6 9 3 5 1012.6 - 0.0
23/06:30am 27.5 32.1 21.7 70 3.9 CALM 0 6 0 3 1012.2 - 0.0
23/06:00am 26.0 30.2 20.9 73 3.4 CALM 0 6 0 3 1011.9 1010.9 0.0
23/05:30am 25.4 29.5 20.7 75 3.1 CALM 0 0 0 0 1011.5 - 0.0
23/04:30am 25.7 28.8 21.0 75 3.1 S 6 6 3 3 1011.0 - -
23/04:00am 25.7 28.8 21.0 75 3.1 SSE 6 7 3 4 1010.7 - 0.0
23/03:30am 25.8 28.7 21.0 75 3.2 SE 7 9 4 5 1010.3 - 0.0
23/03:00am 26.4 30.2 20.2 68 4.1 CALM 0 0 0 0 1010.3 1009.2 -
23/02:30am 26.2 29.1 20.6 71 3.7 E 6 7 3 4 1010.5 - 0.0
23/02:00am 27.2 29.5 19.5 62 5.0 NW 6 7 3 4 1010.4 - 0.0
23/01:30am 27.4 29.6 19.6 62 5.1 N 7 9 4 5 1010.6 - 0.0
23/01:00am 27.7 29.9 19.2 60 5.5 N 6 7 3 4 1010.9 - 0.0
23/12:30am 27.9 29.1 19.1 58 5.7 N 11 13 6 7 1011.1 - 0.0
23/12:00am 27.6 28.8 19.1 59 5.5 N 11 13 6 7 1011.3 1010.2 0.0
 
Date/Time
WST
Temp
°C
App
Temp
°C
Dew
Point
°C
Rel
Hum
%
Delta-T
°C
Wind Press
QNH
hPa
Press
MSL
hPa
Rain since
9am
mm
Dir  Spd
km/h
Gust
km/h
Spd
kts
Gust
kts
22/11:30pm 28.0 29.1 18.9 57 5.9 NNW 11 13 6 7 1011.6 - 0.0
22/11:00pm 28.1 29.3 19.0 57 5.9 N 11 13 6 7 1011.8 - 0.0
22/10:30pm 28.2 30.3 19.3 58 5.8 N 7 11 4 6 1012.1 - 0.0
22/10:00pm 28.2 30.0 19.5 59 5.7 NW 9 11 5 6 1012.2 - 0.0
22/09:30pm 28.4 30.2 19.5 58 5.8 WNW 9 11 5 6 1012.4 - 0.0
22/09:00pm 28.9 30.4 19.8 58 6.0 N 11 13 6 7 1012.2 1011.2 0.0
22/08:30pm 29.0 30.9 19.7 57 6.1 N 9 11 5 6 1012.1 - 0.0

Other Formats:

Comma delimited format used in spreadsheet applications
http://www.bom.gov.au/fwo/IDW60801/IDW60801.94217.axf

JavaScript Object Notation format (JSON) in row-major order
http://www.bom.gov.au/fwo/IDW60801/IDW60801.94217.json